createdAt,value
2023-02-15T00:02:11.581Z,35.97
2023-02-15T00:04:54.665Z,40.55
2023-02-15T00:07:23.490Z,35.67
2023-02-15T00:15:36.017Z,29.15
2023-02-15T00:18:12.710Z,28.23
2023-02-15T00:20:42.432Z,30.38
2023-02-15T00:23:12.152Z,39.13
2023-02-15T00:25:44.071Z,31.50
2023-02-15T00:28:13.810Z,35.50
2023-02-15T00:30:40.345Z,41.33
2023-02-15T00:33:16.222Z,33.88
2023-02-15T00:35:51.432Z,38.38
2023-02-15T00:38:17.975Z,37.47
2023-02-15T00:40:55.847Z,38.75
2023-02-15T00:46:59.384Z,48.78
2023-02-15T00:49:27.969Z,56.67
2023-02-15T00:52:08.302Z,60.85
2023-02-15T00:54:39.743Z,64.90
2023-02-15T00:57:15.004Z,61.72
2023-02-15T00:59:43.306Z,65.18
2023-02-15T01:02:13.346Z,57.72
2023-02-15T01:04:39.866Z,57.38
2023-02-15T01:07:09.238Z,65.15
2023-02-15T01:09:44.141Z,55.67
2023-02-15T01:12:13.186Z,56.55
2023-02-15T01:14:39.678Z,60.05
2023-02-15T01:17:09.660Z,56.35
2023-02-15T01:19:36.310Z,52.55
2023-02-15T01:22:02.731Z,57.33
2023-02-15T01:24:29.157Z,48.50
2023-02-15T01:27:00.374Z,44.83
2023-02-15T01:29:29.146Z,54.60
2023-02-15T01:31:57.814Z,53.67
2023-02-15T01:34:24.366Z,50.45
2023-02-15T01:36:54.213Z,46.55
2023-02-15T01:39:23.591Z,43.83
2023-02-15T01:41:51.976Z,39.85
2023-02-15T01:44:41.449Z,40.90
2023-02-15T01:47:12.819Z,40.13
2023-02-15T01:49:44.054Z,43.42
2023-02-15T01:52:14.452Z,39.40
2023-02-15T01:54:41.911Z,37.55
2023-02-15T01:57:14.262Z,45.53
2023-02-15T01:59:48.942Z,41.00
2023-02-15T02:02:17.676Z,38.70
2023-02-15T02:04:57.895Z,36.45
2023-02-15T02:07:27.737Z,44.47
2023-02-15T02:09:54.245Z,37.55
2023-02-15T02:12:22.184Z,37.30
2023-02-15T02:14:51.939Z,34.65
2023-02-15T02:17:24.510Z,36.30
2023-02-15T02:20:12.999Z,33.70
2023-02-15T02:22:59.669Z,32.83
2023-02-15T02:25:45.106Z,35.50
2023-02-15T02:28:50.150Z,35.88
2023-02-15T02:31:39.520Z,35.63
2023-02-15T02:34:24.474Z,37.60
2023-02-15T02:36:59.565Z,39.35
2023-02-15T02:39:41.173Z,35.47
2023-02-15T02:42:15.067Z,35.35
2023-02-15T02:44:50.174Z,37.83
2023-02-15T02:47:38.767Z,38.75
2023-02-15T02:50:10.180Z,37.92
2023-02-15T02:52:47.606Z,38.35
2023-02-15T02:55:20.951Z,32.88
2023-02-15T02:58:04.440Z,35.65
2023-02-15T03:00:35.386Z,35.70
2023-02-15T03:03:06.394Z,33.53
2023-02-15T03:05:33.685Z,35.35
2023-02-15T03:08:07.034Z,34.92
2023-02-15T03:10:35.923Z,28.92
2023-02-15T03:13:02.501Z,33.13
2023-02-15T03:15:54.298Z,30.13
2023-02-15T03:18:23.642Z,27.83
2023-02-15T03:20:50.616Z,28.50
2023-02-15T03:23:19.323Z,31.63
2023-02-15T03:25:49.594Z,27.95
2023-02-15T03:28:24.412Z,28.38
2023-02-15T03:30:54.088Z,29.10
2023-02-15T03:33:21.210Z,30.70
2023-02-15T03:36:26.571Z,30.73
2023-02-15T03:39:00.835Z,30.50
2023-02-15T03:41:35.568Z,29.00
2023-02-15T03:44:06.339Z,36.75
2023-02-15T03:46:34.718Z,34.45
2023-02-15T03:49:12.917Z,30.40
2023-02-15T03:51:41.321Z,30.33
2023-02-15T03:54:12.674Z,33.13
2023-02-15T03:56:40.932Z,37.95
2023-02-15T03:59:26.129Z,26.00
2023-02-15T04:01:58.731Z,29.90
2023-02-15T04:04:36.333Z,31.15
2023-02-15T04:07:04.143Z,31.88
2023-02-15T04:09:49.301Z,31.95
2023-02-15T04:12:15.791Z,26.52
2023-02-15T04:15:01.011Z,30.63
2023-02-15T04:17:28.583Z,36.40
2023-02-15T04:20:13.573Z,31.50
2023-02-15T04:22:58.862Z,33.28
2023-02-15T04:25:25.528Z,29.17
2023-02-15T04:27:53.612Z,30.02
2023-02-15T04:30:25.011Z,33.15
2023-02-15T04:32:52.110Z,32.90
2023-02-15T04:35:19.065Z,30.23
2023-02-15T04:37:47.366Z,26.95
2023-02-15T04:40:14.614Z,28.35
2023-02-15T04:42:41.318Z,29.58
2023-02-15T04:45:08.323Z,28.50
2023-02-15T04:47:35.109Z,30.23
2023-02-15T04:50:01.684Z,30.13
2023-02-15T04:52:28.165Z,25.23
2023-02-15T04:54:54.621Z,30.85
2023-02-15T04:57:21.205Z,27.60
2023-02-15T04:59:47.705Z,28.20
2023-02-15T05:02:14.373Z,28.33
2023-02-15T05:04:40.824Z,23.92
2023-02-15T05:07:07.344Z,26.58
2023-02-15T05:09:33.846Z,25.95
2023-02-15T05:12:00.344Z,26.80
2023-02-15T05:14:26.845Z,23.92
2023-02-15T05:16:55.135Z,24.52
2023-02-15T05:19:21.724Z,28.70
2023-02-15T05:21:48.255Z,27.58
2023-02-15T05:24:33.492Z,28.80
2023-02-15T05:27:18.672Z,27.77
2023-02-15T05:29:45.067Z,31.33
2023-02-15T05:32:13.389Z,26.70
2023-02-15T05:34:39.944Z,31.75
2023-02-15T05:37:06.485Z,24.85
2023-02-15T05:39:32.944Z,27.08
2023-02-15T05:42:00.617Z,27.50
2023-02-15T05:44:27.012Z,25.30
2023-02-15T05:46:53.500Z,24.80
2023-02-15T05:49:19.937Z,23.92
2023-02-15T05:51:46.412Z,27.27
2023-02-15T05:54:12.844Z,26.42
2023-02-15T05:56:39.238Z,23.92
2023-02-15T05:59:05.853Z,25.50
2023-02-15T06:01:32.322Z,28.55
2023-02-15T06:03:58.807Z,29.13
2023-02-15T06:06:25.224Z,22.40
2023-02-15T06:08:51.834Z,25.98
2023-02-15T06:11:18.375Z,24.67
2023-02-15T06:13:44.920Z,23.02
2023-02-15T06:16:16.873Z,25.08
2023-02-15T06:18:43.992Z,28.65
2023-02-15T06:21:10.409Z,27.23
2023-02-15T06:23:36.981Z,28.42
2023-02-15T12:30:41.493Z,16.80
2023-02-15T12:33:26.626Z,14.85
2023-02-15T12:35:58.815Z,16.33
2023-02-15T12:38:25.717Z,14.90
2023-02-15T12:40:59.745Z,18.67
2023-02-15T12:43:27.524Z,12.93
2023-02-15T12:45:54.017Z,13.63
2023-02-15T12:48:21.239Z,15.88
2023-02-15T12:50:54.714Z,14.48
2023-02-15T12:53:34.839Z,16.40
2023-02-15T12:56:02.725Z,15.90
2023-02-15T12:58:33.024Z,14.43
2023-02-15T13:01:14.736Z,15.20
2023-02-15T13:04:01.551Z,16.10
2023-02-15T13:06:28.862Z,17.55
2023-02-15T13:08:56.915Z,16.30
2023-02-15T13:11:27.603Z,15.15
2023-02-15T13:13:55.767Z,15.48
2023-02-15T13:16:32.963Z,18.00
2023-02-15T13:19:01.840Z,16.10
2023-02-15T13:21:33.092Z,15.57
2023-02-15T13:24:06.086Z,15.68
2023-02-15T13:26:33.555Z,13.80
2023-02-15T13:29:02.447Z,15.77
2023-02-15T13:31:34.249Z,12.77
2023-02-15T13:34:08.517Z,13.98
2023-02-15T13:36:50.292Z,17.83
2023-02-15T13:39:16.695Z,15.68
2023-02-15T13:41:53.178Z,13.63
2023-02-15T13:44:28.925Z,15.38
2023-02-15T13:47:03.120Z,13.35
2023-02-15T13:49:40.788Z,16.55
2023-02-15T13:52:33.544Z,15.18
2023-02-15T13:55:22.020Z,12.38
2023-02-15T13:57:57.504Z,14.60
2023-02-15T14:00:29.150Z,15.45
2023-02-15T14:03:21.021Z,13.77
2023-02-15T14:06:13.964Z,13.38
2023-02-15T14:08:52.857Z,14.10
2023-02-15T14:11:19.245Z,12.85
2023-02-15T14:13:50.372Z,13.43
2023-02-15T14:16:20.546Z,12.82
2023-02-15T14:18:52.494Z,13.27
2023-02-15T14:21:25.180Z,13.35
2023-02-15T14:24:00.738Z,14.80
2023-02-15T14:26:42.800Z,13.00
2023-02-15T14:29:21.230Z,13.57
2023-02-15T14:31:50.474Z,10.70
2023-02-15T14:34:31.236Z,12.95
2023-02-15T14:36:57.958Z,10.88
2023-02-15T14:40:01.636Z,15.18
2023-02-15T14:42:31.019Z,14.15
2023-02-15T14:45:15.422Z,13.90
2023-02-15T14:47:43.397Z,13.07
2023-02-15T14:50:29.133Z,13.23
2023-02-15T14:53:15.459Z,15.10
2023-02-15T14:55:41.893Z,14.07
2023-02-15T14:58:12.525Z,14.15
2023-02-15T15:00:39.863Z,15.25
2023-02-15T15:03:32.828Z,14.30
2023-02-15T15:06:02.301Z,13.80
2023-02-15T15:08:34.369Z,15.00
2023-02-15T15:11:42.164Z,14.68
2023-02-15T15:14:10.117Z,15.88
2023-02-15T15:16:36.709Z,14.90
2023-02-15T15:19:04.415Z,13.50
2023-02-15T15:21:49.193Z,13.60
2023-02-15T15:24:34.363Z,15.55
2023-02-15T15:27:19.626Z,14.95
2023-02-15T15:29:46.002Z,15.57
2023-02-15T15:32:13.840Z,15.15
2023-02-15T15:34:55.081Z,15.57
2023-02-15T15:37:41.967Z,13.25
2023-02-15T15:40:26.372Z,14.27
2023-02-15T15:42:55.776Z,13.77
2023-02-15T15:45:39.644Z,16.23
2023-02-15T15:48:18.254Z,14.32
2023-02-15T15:50:44.676Z,12.80
2023-02-15T15:53:19.243Z,13.10
2023-02-15T15:55:47.448Z,15.55
2023-02-15T15:58:16.631Z,15.63
2023-02-15T16:00:48.420Z,14.73
2023-02-15T16:03:24.961Z,13.73
2023-02-15T16:05:55.347Z,13.52
2023-02-15T16:11:23.872Z,11.93
2023-02-15T16:13:50.614Z,18.98
2023-02-15T16:16:29.285Z,18.13
2023-02-15T16:18:58.800Z,18.77
2023-02-15T16:21:29.640Z,16.27
2023-02-15T16:24:05.193Z,19.00
2023-02-15T16:26:49.960Z,17.33
2023-02-15T16:29:17.266Z,15.45
2023-02-15T16:31:43.982Z,21.20
2023-02-15T16:34:18.432Z,21.13
2023-02-15T16:36:44.804Z,19.65
2023-02-15T16:39:18.387Z,17.85
2023-02-15T16:41:46.970Z,22.77
2023-02-15T16:44:17.202Z,20.23
2023-02-15T16:46:45.650Z,21.58
2023-02-15T16:49:18.064Z,24.45
2023-02-15T16:51:45.798Z,24.05
2023-02-15T16:54:18.229Z,27.55
2023-02-15T16:56:46.995Z,24.15
2023-02-15T16:59:32.220Z,23.85
2023-02-15T17:02:00.528Z,25.55
2023-02-15T17:04:33.381Z,30.45
2023-02-15T17:07:00.452Z,26.33
2023-02-15T17:09:27.034Z,26.67
2023-02-15T17:11:54.347Z,26.38
2023-02-15T17:14:27.531Z,23.27
2023-02-15T17:16:54.961Z,26.55
2023-02-15T17:19:32.306Z,24.73
2023-02-15T17:22:09.035Z,28.50
2023-02-15T17:24:39.230Z,23.35
2023-02-15T17:27:07.783Z,28.50
2023-02-15T17:29:36.768Z,32.45
2023-02-15T17:32:07.742Z,32.72
2023-02-15T17:34:43.596Z,32.35
2023-02-15T17:37:12.811Z,29.45
2023-02-15T17:39:39.091Z,36.40
2023-02-15T17:42:05.527Z,34.08
2023-02-15T17:44:31.805Z,32.88
2023-02-15T17:46:58.193Z,43.95
2023-02-15T17:49:26.065Z,47.47
2023-02-15T17:51:52.707Z,40.33
2023-02-15T17:54:37.849Z,34.60
2023-02-15T17:57:06.932Z,33.00
2023-02-15T17:59:33.393Z,34.00
2023-02-15T18:02:18.600Z,35.38
2023-02-15T18:05:03.966Z,30.13
2023-02-15T18:07:55.036Z,31.45
2023-02-15T18:10:49.010Z,35.53
2023-02-15T18:13:15.504Z,32.75
2023-02-15T18:15:41.931Z,30.75
2023-02-15T18:18:09.508Z,33.35
2023-02-15T18:20:37.189Z,31.98
2023-02-15T18:23:03.575Z,26.30
2023-02-15T18:25:29.876Z,33.78
